sensor_id;sensor_type;location;lat;lon;timestamp;pressure;altitude;pressure_sealevel;temperature
58929;BMP180;44713;53.378;10.022;2022-11-20T00:00:51;100903.00;;;1.80
58929;BMP180;44713;53.378;10.022;2022-11-20T00:03:16;100912.00;;;1.80
58929;BMP180;44713;53.378;10.022;2022-11-20T00:05:42;100910.00;;;1.70
58929;BMP180;44713;53.378;10.022;2022-11-20T00:08:08;100910.00;;;1.80
58929;BMP180;44713;53.378;10.022;2022-11-20T00:10:36;100912.00;;;1.80
58929;BMP180;44713;53.378;10.022;2022-11-20T00:13:01;100909.00;;;1.80
58929;BMP180;44713;53.378;10.022;2022-11-20T00:15:26;100908.00;;;1.80
58929;BMP180;44713;53.378;10.022;2022-11-20T00:17:52;100917.00;;;1.80
58929;BMP180;44713;53.378;10.022;2022-11-20T00:20:17;100905.00;;;1.70
58929;BMP180;44713;53.378;10.022;2022-11-20T00:22:42;100919.00;;;1.70
58929;BMP180;44713;53.378;10.022;2022-11-20T00:25:08;100904.00;;;1.70
58929;BMP180;44713;53.378;10.022;2022-11-20T00:27:33;100912.00;;;1.70
58929;BMP180;44713;53.378;10.022;2022-11-20T00:29:59;100912.00;;;1.70
58929;BMP180;44713;53.378;10.022;2022-11-20T00:32:24;100910.00;;;1.70
58929;BMP180;44713;53.378;10.022;2022-11-20T00:34:50;100916.00;;;1.70
58929;BMP180;44713;53.378;10.022;2022-11-20T00:37:15;100917.00;;;1.70
58929;BMP180;44713;53.378;10.022;2022-11-20T00:39:40;100916.00;;;1.60
58929;BMP180;44713;53.378;10.022;2022-11-20T00:42:05;100918.00;;;1.60
58929;BMP180;44713;53.378;10.022;2022-11-20T00:44:31;100909.00;;;1.70
58929;BMP180;44713;53.378;10.022;2022-11-20T00:46:56;100916.00;;;1.70
58929;BMP180;44713;53.378;10.022;2022-11-20T00:49:21;100914.00;;;1.60
58929;BMP180;44713;53.378;10.022;2022-11-20T00:51:47;100910.00;;;1.60
58929;BMP180;44713;53.378;10.022;2022-11-20T00:54:12;100917.00;;;1.50
58929;BMP180;44713;53.378;10.022;2022-11-20T00:56:38;100909.00;;;1.50
58929;BMP180;44713;53.378;10.022;2022-11-20T00:59:03;100903.00;;;1.50
58929;BMP180;44713;53.378;10.022;2022-11-20T01:01:29;100910.00;;;1.50
58929;BMP180;44713;53.378;10.022;2022-11-20T01:03:57;100910.00;;;1.50
58929;BMP180;44713;53.378;10.022;2022-11-20T01:06:28;100910.00;;;1.40
58929;BMP180;44713;53.378;10.022;2022-11-20T01:08:57;100910.00;;;1.40
58929;BMP180;44713;53.378;10.022;2022-11-20T01:11:29;100895.00;;;1.40
58929;BMP180;44713;53.378;10.022;2022-11-20T01:13:55;100903.00;;;1.40
58929;BMP180;44713;53.378;10.022;2022-11-20T01:16:30;100911.00;;;1.40
58929;BMP180;44713;53.378;10.022;2022-11-20T01:18:58;100906.00;;;1.40
58929;BMP180;44713;53.378;10.022;2022-11-20T01:21:32;100903.00;;;1.40
58929;BMP180;44713;53.378;10.022;2022-11-20T01:23:58;100903.00;;;1.40
58929;BMP180;44713;53.378;10.022;2022-11-20T01:26:29;100895.00;;;1.40
58929;BMP180;44713;53.378;10.022;2022-11-20T01:28:55;100897.00;;;1.40
58929;BMP180;44713;53.378;10.022;2022-11-20T01:31:26;100886.00;;;1.40
58929;BMP180;44713;53.378;10.022;2022-11-20T01:33:54;100887.00;;;1.40
58929;BMP180;44713;53.378;10.022;2022-11-20T01:36:20;100872.00;;;1.40
58929;BMP180;44713;53.378;10.022;2022-11-20T01:38:47;100875.00;;;1.40
58929;BMP180;44713;53.378;10.022;2022-11-20T01:41:14;100867.00;;;1.50
58929;BMP180;44713;53.378;10.022;2022-11-20T01:44:00;100867.00;;;1.40
58929;BMP180;44713;53.378;10.022;2022-11-20T01:46:26;100861.00;;;1.40
58929;BMP180;44713;53.378;10.022;2022-11-20T01:48:54;100867.00;;;1.40
58929;BMP180;44713;53.378;10.022;2022-11-20T01:53:59;100867.00;;;1.30
58929;BMP180;44713;53.378;10.022;2022-11-20T01:56:26;100874.00;;;1.40
58929;BMP180;44713;53.378;10.022;2022-11-20T01:58:56;100864.00;;;1.30
58929;BMP180;44713;53.378;10.022;2022-11-20T02:01:23;100859.00;;;1.40
58929;BMP180;44713;53.378;10.022;2022-11-20T02:03:49;100856.00;;;1.50
58929;BMP180;44713;53.378;10.022;2022-11-20T02:06:39;100858.00;;;1.50
58929;BMP180;44713;53.378;10.022;2022-11-20T02:09:05;100851.00;;;1.50
58929;BMP180;44713;53.378;10.022;2022-11-20T02:11:31;100846.00;;;1.40
58929;BMP180;44713;53.378;10.022;2022-11-20T02:13:56;100848.00;;;1.40
58929;BMP180;44713;53.378;10.022;2022-11-20T02:16:29;100839.00;;;1.50
58929;BMP180;44713;53.378;10.022;2022-11-20T02:18:57;100826.00;;;1.50
58929;BMP180;44713;53.378;10.022;2022-11-20T02:21:29;100823.00;;;1.50
58929;BMP180;44713;53.378;10.022;2022-11-20T02:24:17;100834.00;;;1.40
58929;BMP180;44713;53.378;10.022;2022-11-20T02:26:51;100817.00;;;1.40
58929;BMP180;44713;53.378;10.022;2022-11-20T02:29:24;100818.00;;;1.40
58929;BMP180;44713;53.378;10.022;2022-11-20T02:31:51;100821.00;;;1.50
58929;BMP180;44713;53.378;10.022;2022-11-20T02:34:17;100827.00;;;1.50
58929;BMP180;44713;53.378;10.022;2022-11-20T02:36:42;100820.00;;;1.50
58929;BMP180;44713;53.378;10.022;2022-11-20T02:39:09;100827.00;;;1.50
58929;BMP180;44713;53.378;10.022;2022-11-20T02:41:36;100813.00;;;1.50
58929;BMP180;44713;53.378;10.022;2022-11-20T02:44:03;100816.00;;;1.50
58929;BMP180;44713;53.378;10.022;2022-11-20T02:46:29;100806.00;;;1.50
58929;BMP180;44713;53.378;10.022;2022-11-20T02:48:55;100812.00;;;1.50
58929;BMP180;44713;53.378;10.022;2022-11-20T02:51:21;100822.00;;;1.50
58929;BMP180;44713;53.378;10.022;2022-11-20T02:53:46;100815.00;;;1.40
58929;BMP180;44713;53.378;10.022;2022-11-20T02:56:12;100818.00;;;1.50
58929;BMP180;44713;53.378;10.022;2022-11-20T02:58:37;100824.00;;;1.40
58929;BMP180;44713;53.378;10.022;2022-11-20T03:01:02;100810.00;;;1.40
58929;BMP180;44713;53.378;10.022;2022-11-20T03:03:28;100802.00;;;1.40
58929;BMP180;44713;53.378;10.022;2022-11-20T03:05:53;100809.00;;;1.40
58929;BMP180;44713;53.378;10.022;2022-11-20T03:08:18;100820.00;;;1.40
58929;BMP180;44713;53.378;10.022;2022-11-20T03:10:43;100816.00;;;1.50
58929;BMP180;44713;53.378;10.022;2022-11-20T03:13:09;100824.00;;;1.40
58929;BMP180;44713;53.378;10.022;2022-11-20T03:15:36;100823.00;;;1.40
58929;BMP180;44713;53.378;10.022;2022-11-20T03:18:01;100817.00;;;1.40
58929;BMP180;44713;53.378;10.022;2022-11-20T03:20:26;100815.00;;;1.50
58929;BMP180;44713;53.378;10.022;2022-11-20T03:22:53;100808.00;;;1.40
58929;BMP180;44713;53.378;10.022;2022-11-20T03:25:19;100806.00;;;1.40
58929;BMP180;44713;53.378;10.022;2022-11-20T03:27:44;100802.00;;;1.40
58929;BMP180;44713;53.378;10.022;2022-11-20T03:30:10;100802.00;;;1.40
58929;BMP180;44713;53.378;10.022;2022-11-20T03:32:35;100798.00;;;1.50
58929;BMP180;44713;53.378;10.022;2022-11-20T03:35:01;100795.00;;;1.40
58929;BMP180;44713;53.378;10.022;2022-11-20T03:37:26;100796.00;;;1.50
58929;BMP180;44713;53.378;10.022;2022-11-20T03:39:51;100787.00;;;1.50
58929;BMP180;44713;53.378;10.022;2022-11-20T03:42:17;100783.00;;;1.60
58929;BMP180;44713;53.378;10.022;2022-11-20T03:45:00;100784.00;;;1.60
58929;BMP180;44713;53.378;10.022;2022-11-20T03:47:25;100777.00;;;1.60
58929;BMP180;44713;53.378;10.022;2022-11-20T03:49:51;100791.00;;;1.60
58929;BMP180;44713;53.378;10.022;2022-11-20T03:52:16;100786.00;;;1.60
58929;BMP180;44713;53.378;10.022;2022-11-20T03:54:42;100782.00;;;1.50
58929;BMP180;44713;53.378;10.022;2022-11-20T03:57:07;100786.00;;;1.60
58929;BMP180;44713;53.378;10.022;2022-11-20T03:59:32;100791.00;;;1.50
58929;BMP180;44713;53.378;10.022;2022-11-20T04:01:57;100786.00;;;1.50
58929;BMP180;44713;53.378;10.022;2022-11-20T04:04:23;100788.00;;;1.50
58929;BMP180;44713;53.378;10.022;2022-11-20T04:06:48;100788.00;;;1.50
58929;BMP180;44713;53.378;10.022;2022-11-20T04:09:13;100778.00;;;1.50
58929;BMP180;44713;53.378;10.022;2022-11-20T04:11:39;100784.00;;;1.60
58929;BMP180;44713;53.378;10.022;2022-11-20T04:14:06;100777.00;;;1.50
58929;BMP180;44713;53.378;10.022;2022-11-20T04:16:35;100777.00;;;1.50
58929;BMP180;44713;53.378;10.022;2022-11-20T04:19:02;100783.00;;;1.50
58929;BMP180;44713;53.378;10.022;2022-11-20T04:21:28;100775.00;;;1.50
58929;BMP180;44713;53.378;10.022;2022-11-20T04:23:54;100778.00;;;1.60
58929;BMP180;44713;53.378;10.022;2022-11-20T04:26:21;100773.00;;;1.60
58929;BMP180;44713;53.378;10.022;2022-11-20T04:28:47;100785.00;;;1.50
58929;BMP180;44713;53.378;10.022;2022-11-20T04:31:17;100782.00;;;1.50
58929;BMP180;44713;53.378;10.022;2022-11-20T04:33:44;100778.00;;;1.50
58929;BMP180;44713;53.378;10.022;2022-11-20T04:36:21;100771.00;;;1.50
58929;BMP180;44713;53.378;10.022;2022-11-20T04:38:50;100765.00;;;1.40
58929;BMP180;44713;53.378;10.022;2022-11-20T04:41:18;100773.00;;;1.40
58929;BMP180;44713;53.378;10.022;2022-11-20T04:43:53;100773.00;;;1.40
58929;BMP180;44713;53.378;10.022;2022-11-20T04:46:20;100763.00;;;1.40
58929;BMP180;44713;53.378;10.022;2022-11-20T04:48:46;100767.00;;;1.40
58929;BMP180;44713;53.378;10.022;2022-11-20T04:51:12;100766.00;;;1.40
58929;BMP180;44713;53.378;10.022;2022-11-20T04:53:37;100762.00;;;1.30
58929;BMP180;44713;53.378;10.022;2022-11-20T04:56:07;100754.00;;;1.40
58929;BMP180;44713;53.378;10.022;2022-11-20T04:58:33;100752.00;;;1.40
58929;BMP180;44713;53.378;10.022;2022-11-20T05:01:17;100757.00;;;1.40
58929;BMP180;44713;53.378;10.022;2022-11-20T05:03:43;100751.00;;;1.40
58929;BMP180;44713;53.378;10.022;2022-11-20T05:06:11;100751.00;;;1.40
58929;BMP180;44713;53.378;10.022;2022-11-20T05:08:36;100755.00;;;1.40
58929;BMP180;44713;53.378;10.022;2022-11-20T05:11:03;100755.00;;;1.40
58929;BMP180;44713;53.378;10.022;2022-11-20T05:13:29;100740.00;;;1.40
58929;BMP180;44713;53.378;10.022;2022-11-20T05:15:54;100743.00;;;1.30
58929;BMP180;44713;53.378;10.022;2022-11-20T05:18:20;100739.00;;;1.30
58929;BMP180;44713;53.378;10.022;2022-11-20T05:20:45;100742.00;;;1.40
58929;BMP180;44713;53.378;10.022;2022-11-20T05:23:10;100737.00;;;1.30
58929;BMP180;44713;53.378;10.022;2022-11-20T05:25:35;100730.00;;;1.30
58929;BMP180;44713;53.378;10.022;2022-11-20T05:28:01;100725.00;;;1.30
58929;BMP180;44713;53.378;10.022;2022-11-20T05:30:26;100724.00;;;1.30
58929;BMP180;44713;53.378;10.022;2022-11-20T05:32:51;100736.00;;;1.40
58929;BMP180;44713;53.378;10.022;2022-11-20T05:35:17;100733.00;;;1.30
58929;BMP180;44713;53.378;10.022;2022-11-20T05:37:42;100737.00;;;1.40
58929;BMP180;44713;53.378;10.022;2022-11-20T05:40:08;100746.00;;;1.30
58929;BMP180;44713;53.378;10.022;2022-11-20T05:42:33;100742.00;;;1.30
58929;BMP180;44713;53.378;10.022;2022-11-20T05:45:03;100736.00;;;1.30
58929;BMP180;44713;53.378;10.022;2022-11-20T05:47:32;100739.00;;;1.30
58929;BMP180;44713;53.378;10.022;2022-11-20T05:49:58;100731.00;;;1.20
58929;BMP180;44713;53.378;10.022;2022-11-20T05:52:23;100731.00;;;1.20
58929;BMP180;44713;53.378;10.022;2022-11-20T05:54:48;100731.00;;;1.20
58929;BMP180;44713;53.378;10.022;2022-11-20T05:57:14;100717.00;;;1.20
58929;BMP180;44713;53.378;10.022;2022-11-20T05:59:39;100729.00;;;1.20
58929;BMP180;44713;53.378;10.022;2022-11-20T06:02:05;100732.00;;;1.20
58929;BMP180;44713;53.378;10.022;2022-11-20T06:04:30;100730.00;;;1.20
58929;BMP180;44713;53.378;10.022;2022-11-20T06:06:55;100736.00;;;1.20
58929;BMP180;44713;53.378;10.022;2022-11-20T06:09:21;100732.00;;;1.20
58929;BMP180;44713;53.378;10.022;2022-11-20T06:11:46;100737.00;;;1.20
58929;BMP180;44713;53.378;10.022;2022-11-20T06:14:11;100735.00;;;1.10
58929;BMP180;44713;53.378;10.022;2022-11-20T06:16:37;100735.00;;;1.10
58929;BMP180;44713;53.378;10.022;2022-11-20T06:19:02;100736.00;;;1.10
58929;BMP180;44713;53.378;10.022;2022-11-20T06:21:27;100726.00;;;1.20
58929;BMP180;44713;53.378;10.022;2022-11-20T06:23:53;100728.00;;;1.10
58929;BMP180;44713;53.378;10.022;2022-11-20T06:26:20;100726.00;;;1.10
58929;BMP180;44713;53.378;10.022;2022-11-20T06:28:46;100719.00;;;1.10
58929;BMP180;44713;53.378;10.022;2022-11-20T06:31:13;100717.00;;;1.10
58929;BMP180;44713;53.378;10.022;2022-11-20T06:33:39;100713.00;;;1.10
58929;BMP180;44713;53.378;10.022;2022-11-20T06:36:05;100714.00;;;1.00
58929;BMP180;44713;53.378;10.022;2022-11-20T06:38:31;100722.00;;;1.00
58929;BMP180;44713;53.378;10.022;2022-11-20T06:40:56;100714.00;;;1.00
58929;BMP180;44713;53.378;10.022;2022-11-20T06:43:22;100715.00;;;1.00
58929;BMP180;44713;53.378;10.022;2022-11-20T06:45:56;100702.00;;;1.10
58929;BMP180;44713;53.378;10.022;2022-11-20T06:48:22;100706.00;;;1.10
58929;BMP180;44713;53.378;10.022;2022-11-20T06:50:48;100702.00;;;1.10
58929;BMP180;44713;53.378;10.022;2022-11-20T06:53:14;100698.00;;;1.10
58929;BMP180;44713;53.378;10.022;2022-11-20T06:55:43;100698.00;;;1.10
58929;BMP180;44713;53.378;10.022;2022-11-20T06:58:09;100694.00;;;1.10
58929;BMP180;44713;53.378;10.022;2022-11-20T07:00:35;100694.00;;;1.10
58929;BMP180;44713;53.378;10.022;2022-11-20T07:03:04;100692.00;;;1.20
58929;BMP180;44713;53.378;10.022;2022-11-20T07:05:29;100689.00;;;1.20
58929;BMP180;44713;53.378;10.022;2022-11-20T07:07:57;100689.00;;;1.20
58929;BMP180;44713;53.378;10.022;2022-11-20T07:10:23;100691.00;;;1.20
58929;BMP180;44713;53.378;10.022;2022-11-20T07:12:50;100690.00;;;1.20
58929;BMP180;44713;53.378;10.022;2022-11-20T07:15:16;100690.00;;;1.20
58929;BMP180;44713;53.378;10.022;2022-11-20T07:17:42;100687.00;;;1.20
58929;BMP180;44713;53.378;10.022;2022-11-20T07:20:07;100688.00;;;1.10
58929;BMP180;44713;53.378;10.022;2022-11-20T07:22:33;100677.00;;;1.10
58929;BMP180;44713;53.378;10.022;2022-11-20T07:24:58;100685.00;;;1.20
58929;BMP180;44713;53.378;10.022;2022-11-20T07:27:23;100680.00;;;1.20
58929;BMP180;44713;53.378;10.022;2022-11-20T07:29:49;100685.00;;;1.30
58929;BMP180;44713;53.378;10.022;2022-11-20T07:32:14;100698.00;;;1.30
58929;BMP180;44713;53.378;10.022;2022-11-20T07:34:39;100693.00;;;1.40
58929;BMP180;44713;53.378;10.022;2022-11-20T07:37:04;100693.00;;;1.30
58929;BMP180;44713;53.378;10.022;2022-11-20T07:39:30;100700.00;;;1.30
58929;BMP180;44713;53.378;10.022;2022-11-20T07:41:55;100699.00;;;1.30
58929;BMP180;44713;53.378;10.022;2022-11-20T07:44:20;100700.00;;;1.40
58929;BMP180;44713;53.378;10.022;2022-11-20T07:46:46;100699.00;;;1.40
58929;BMP180;44713;53.378;10.022;2022-11-20T07:49:11;100704.00;;;1.40
58929;BMP180;44713;53.378;10.022;2022-11-20T07:51:36;100699.00;;;1.40
58929;BMP180;44713;53.378;10.022;2022-11-20T07:54:02;100702.00;;;1.40
58929;BMP180;44713;53.378;10.022;2022-11-20T07:56:27;100692.00;;;1.50
58929;BMP180;44713;53.378;10.022;2022-11-20T07:58:52;100688.00;;;1.60
58929;BMP180;44713;53.378;10.022;2022-11-20T08:01:18;100693.00;;;1.60
58929;BMP180;44713;53.378;10.022;2022-11-20T08:03:43;100696.00;;;1.70
58929;BMP180;44713;53.378;10.022;2022-11-20T08:06:08;100699.00;;;1.70
58929;BMP180;44713;53.378;10.022;2022-11-20T08:08:34;100697.00;;;1.80
58929;BMP180;44713;53.378;10.022;2022-11-20T08:10:59;100700.00;;;1.70
58929;BMP180;44713;53.378;10.022;2022-11-20T08:13:44;100692.00;;;1.80
58929;BMP180;44713;53.378;10.022;2022-11-20T08:16:28;100696.00;;;1.90
58929;BMP180;44713;53.378;10.022;2022-11-20T08:18:54;100693.00;;;1.80
58929;BMP180;44713;53.378;10.022;2022-11-20T08:21:19;100682.00;;;1.90
58929;BMP180;44713;53.378;10.022;2022-11-20T08:23:45;100694.00;;;1.90
58929;BMP180;44713;53.378;10.022;2022-11-20T08:26:10;100699.00;;;1.90
58929;BMP180;44713;53.378;10.022;2022-11-20T08:28:35;100688.00;;;1.90
58929;BMP180;44713;53.378;10.022;2022-11-20T08:31:02;100694.00;;;1.90
58929;BMP180;44713;53.378;10.022;2022-11-20T08:33:28;100707.00;;;1.90
58929;BMP180;44713;53.378;10.022;2022-11-20T08:36:06;100709.00;;;2.00
58929;BMP180;44713;53.378;10.022;2022-11-20T08:38:32;100707.00;;;2.00
58929;BMP180;44713;53.378;10.022;2022-11-20T08:41:03;100718.00;;;1.90
58929;BMP180;44713;53.378;10.022;2022-11-20T08:43:47;100708.00;;;2.00
58929;BMP180;44713;53.378;10.022;2022-11-20T08:46:13;100706.00;;;2.00
58929;BMP180;44713;53.378;10.022;2022-11-20T08:48:38;100705.00;;;1.90
58929;BMP180;44713;53.378;10.022;2022-11-20T08:51:04;100702.00;;;1.90
58929;BMP180;44713;53.378;10.022;2022-11-20T08:53:29;100701.00;;;2.00
58929;BMP180;44713;53.378;10.022;2022-11-20T08:55:56;100704.00;;;2.10
58929;BMP180;44713;53.378;10.022;2022-11-20T08:58:22;100706.00;;;2.00
58929;BMP180;44713;53.378;10.022;2022-11-20T09:00:48;100706.00;;;2.10
58929;BMP180;44713;53.378;10.022;2022-11-20T09:03:13;100706.00;;;2.10
58929;BMP180;44713;53.378;10.022;2022-11-20T09:05:38;100701.00;;;2.20
58929;BMP180;44713;53.378;10.022;2022-11-20T09:08:04;100702.00;;;2.20
58929;BMP180;44713;53.378;10.022;2022-11-20T09:10:29;100707.00;;;2.20
58929;BMP180;44713;53.378;10.022;2022-11-20T09:12:55;100697.00;;;2.20
58929;BMP180;44713;53.378;10.022;2022-11-20T09:15:20;100705.00;;;2.20
58929;BMP180;44713;53.378;10.022;2022-11-20T09:17:57;100714.00;;;2.30
58929;BMP180;44713;53.378;10.022;2022-11-20T09:20:24;100704.00;;;2.20
58929;BMP180;44713;53.378;10.022;2022-11-20T09:22:49;100707.00;;;2.20
58929;BMP180;44713;53.378;10.022;2022-11-20T09:25:15;100706.00;;;2.30
58929;BMP180;44713;53.378;10.022;2022-11-20T09:27:40;100705.00;;;2.40
58929;BMP180;44713;53.378;10.022;2022-11-20T09:30:12;100711.00;;;2.50
58929;BMP180;44713;53.378;10.022;2022-11-20T09:32:41;100701.00;;;2.60
58929;BMP180;44713;53.378;10.022;2022-11-20T09:35:07;100701.00;;;2.70
58929;BMP180;44713;53.378;10.022;2022-11-20T09:37:33;100698.00;;;2.60
58929;BMP180;44713;53.378;10.022;2022-11-20T09:39:58;100701.00;;;2.70
58929;BMP180;44713;53.378;10.022;2022-11-20T09:48:26;100707.00;;;2.70
58929;BMP180;44713;53.378;10.022;2022-11-20T09:54:11;100699.00;;;2.70
58929;BMP180;44713;53.378;10.022;2022-11-20T09:56:42;100699.00;;;2.80
58929;BMP180;44713;53.378;10.022;2022-11-20T09:59:20;100693.00;;;2.70
58929;BMP180;44713;53.378;10.022;2022-11-20T10:01:49;100695.00;;;2.70
58929;BMP180;44713;53.378;10.022;2022-11-20T10:04:19;100697.00;;;2.70
58929;BMP180;44713;53.378;10.022;2022-11-20T10:06:56;100680.00;;;2.90
58929;BMP180;44713;53.378;10.022;2022-11-20T10:09:31;100695.00;;;2.80
58929;BMP180;44713;53.378;10.022;2022-11-20T10:17:33;100698.00;;;3.00
58929;BMP180;44713;53.378;10.022;2022-11-20T10:20:26;100689.00;;;3.00
58929;BMP180;44713;53.378;10.022;2022-11-20T10:29:06;100676.00;;;3.10
58929;BMP180;44713;53.378;10.022;2022-11-20T10:31:43;100675.00;;;3.00
58929;BMP180;44713;53.378;10.022;2022-11-20T10:34:23;100673.00;;;3.20
58929;BMP180;44713;53.378;10.022;2022-11-20T10:36:54;100662.00;;;3.30
58929;BMP180;44713;53.378;10.022;2022-11-20T10:39:41;100672.00;;;3.40
58929;BMP180;44713;53.378;10.022;2022-11-20T10:42:13;100656.00;;;3.60
58929;BMP180;44713;53.378;10.022;2022-11-20T10:44:46;100654.00;;;3.80
58929;BMP180;44713;53.378;10.022;2022-11-20T10:47:30;100647.00;;;3.90
58929;BMP180;44713;53.378;10.022;2022-11-20T10:50:00;100643.00;;;4.00
58929;BMP180;44713;53.378;10.022;2022-11-20T10:57:53;100650.00;;;4.50
58929;BMP180;44713;53.378;10.022;2022-11-20T11:00:20;100645.00;;;4.50
58929;BMP180;44713;53.378;10.022;2022-11-20T11:02:50;100640.00;;;4.70
58929;BMP180;44713;53.378;10.022;2022-11-20T11:07:53;100643.00;;;4.80
58929;BMP180;44713;53.378;10.022;2022-11-20T11:13:19;100642.00;;;4.70
58929;BMP180;44713;53.378;10.022;2022-11-20T11:15:44;100639.00;;;4.60
58929;BMP180;44713;53.378;10.022;2022-11-20T11:18:10;100633.00;;;4.40
58929;BMP180;44713;53.378;10.022;2022-11-20T11:20:37;100635.00;;;4.40
58929;BMP180;44713;53.378;10.022;2022-11-20T11:23:03;100628.00;;;4.50
58929;BMP180;44713;53.378;10.022;2022-11-20T11:25:36;100627.00;;;4.50
58929;BMP180;44713;53.378;10.022;2022-11-20T11:28:20;100636.00;;;4.60
58929;BMP180;44713;53.378;10.022;2022-11-20T11:30:46;100623.00;;;4.70
58929;BMP180;44713;53.378;10.022;2022-11-20T11:33:31;100627.00;;;4.70
58929;BMP180;44713;53.378;10.022;2022-11-20T11:36:03;100634.00;;;4.60
58929;BMP180;44713;53.378;10.022;2022-11-20T11:38:38;100630.00;;;4.80
58929;BMP180;44713;53.378;10.022;2022-11-20T11:41:04;100638.00;;;4.60
58929;BMP180;44713;53.378;10.022;2022-11-20T11:43:32;100633.00;;;4.50
58929;BMP180;44713;53.378;10.022;2022-11-20T11:46:23;100636.00;;;4.30
58929;BMP180;44713;53.378;10.022;2022-11-20T11:49:15;100634.00;;;4.10
58929;BMP180;44713;53.378;10.022;2022-11-20T11:57:07;100640.00;;;4.20
58929;BMP180;44713;53.378;10.022;2022-11-20T11:59:47;100631.00;;;4.20
58929;BMP180;44713;53.378;10.022;2022-11-20T12:02:37;100635.00;;;4.10
58929;BMP180;44713;53.378;10.022;2022-11-20T12:05:12;100633.00;;;4.10
58929;BMP180;44713;53.378;10.022;2022-11-20T12:07:42;100627.00;;;4.00
58929;BMP180;44713;53.378;10.022;2022-11-20T12:10:17;100628.00;;;3.90
58929;BMP180;44713;53.378;10.022;2022-11-20T12:12:46;100626.00;;;3.90
58929;BMP180;44713;53.378;10.022;2022-11-20T12:15:29;100622.00;;;3.90
58929;BMP180;44713;53.378;10.022;2022-11-20T12:17:55;100625.00;;;3.90
58929;BMP180;44713;53.378;10.022;2022-11-20T12:20:25;100615.00;;;3.90
58929;BMP180;44713;53.378;10.022;2022-11-20T12:23:20;100617.00;;;3.70
58929;BMP180;44713;53.378;10.022;2022-11-20T12:25:48;100623.00;;;3.50
58929;BMP180;44713;53.378;10.022;2022-11-20T12:28:38;100608.00;;;3.40
58929;BMP180;44713;53.378;10.022;2022-11-20T12:31:30;100607.00;;;3.40
58929;BMP180;44713;53.378;10.022;2022-11-20T12:34:24;100606.00;;;3.40
58929;BMP180;44713;53.378;10.022;2022-11-20T12:37:24;100610.00;;;3.50
58929;BMP180;44713;53.378;10.022;2022-11-20T12:39:58;100606.00;;;3.60
58929;BMP180;44713;53.378;10.022;2022-11-20T12:42:42;100608.00;;;3.60
58929;BMP180;44713;53.378;10.022;2022-11-20T12:46:01;100599.00;;;3.60
58929;BMP180;44713;53.378;10.022;2022-11-20T12:51:43;100594.00;;;4.00
58929;BMP180;44713;53.378;10.022;2022-11-20T13:00:01;100601.00;;;3.80
58929;BMP180;44713;53.378;10.022;2022-11-20T13:08:23;100600.00;;;3.70
58929;BMP180;44713;53.378;10.022;2022-11-20T13:13:52;100597.00;;;3.70
58929;BMP180;44713;53.378;10.022;2022-11-20T13:19:15;100600.00;;;3.80
58929;BMP180;44713;53.378;10.022;2022-11-20T13:21:43;100604.00;;;3.90
58929;BMP180;44713;53.378;10.022;2022-11-20T13:29:34;100604.00;;;3.70
58929;BMP180;44713;53.378;10.022;2022-11-20T13:32:16;100607.00;;;3.50
58929;BMP180;44713;53.378;10.022;2022-11-20T13:34:57;100610.00;;;3.50
58929;BMP180;44713;53.378;10.022;2022-11-20T13:37:35;100603.00;;;3.60
58929;BMP180;44713;53.378;10.022;2022-11-20T13:42:37;100596.00;;;3.50
58929;BMP180;44713;53.378;10.022;2022-11-20T13:45:09;100602.00;;;3.60
58929;BMP180;44713;53.378;10.022;2022-11-20T13:47:35;100588.00;;;3.60
58929;BMP180;44713;53.378;10.022;2022-11-20T13:50:03;100591.00;;;3.70
58929;BMP180;44713;53.378;10.022;2022-11-20T13:52:40;100587.00;;;3.70
58929;BMP180;44713;53.378;10.022;2022-11-20T14:01:07;100573.00;;;3.70
58929;BMP180;44713;53.378;10.022;2022-11-20T14:03:33;100583.00;;;3.80
58929;BMP180;44713;53.378;10.022;2022-11-20T14:06:03;100578.00;;;3.70
58929;BMP180;44713;53.378;10.022;2022-11-20T14:08:37;100569.00;;;3.80
58929;BMP180;44713;53.378;10.022;2022-11-20T14:11:16;100572.00;;;3.80
58929;BMP180;44713;53.378;10.022;2022-11-20T14:14:01;100576.00;;;3.90
58929;BMP180;44713;53.378;10.022;2022-11-20T14:16:35;100567.00;;;3.90
58929;BMP180;44713;53.378;10.022;2022-11-20T14:21:49;100558.00;;;3.90
58929;BMP180;44713;53.378;10.022;2022-11-20T14:24:19;100563.00;;;4.00
58929;BMP180;44713;53.378;10.022;2022-11-20T14:26:45;100557.00;;;4.00
58929;BMP180;44713;53.378;10.022;2022-11-20T14:29:24;100554.00;;;3.90
58929;BMP180;44713;53.378;10.022;2022-11-20T14:31:53;100556.00;;;3.80
58929;BMP180;44713;53.378;10.022;2022-11-20T14:34:24;100556.00;;;3.80
58929;BMP180;44713;53.378;10.022;2022-11-20T14:36:57;100556.00;;;3.90
58929;BMP180;44713;53.378;10.022;2022-11-20T14:39:31;100558.00;;;3.90
58929;BMP180;44713;53.378;10.022;2022-11-20T14:41:57;100554.00;;;3.90
58929;BMP180;44713;53.378;10.022;2022-11-20T14:44:31;100551.00;;;3.90
58929;BMP180;44713;53.378;10.022;2022-11-20T14:46:59;100551.00;;;3.80
58929;BMP180;44713;53.378;10.022;2022-11-20T14:49:25;100549.00;;;3.80
58929;BMP180;44713;53.378;10.022;2022-11-20T14:52:01;100559.00;;;3.70
58929;BMP180;44713;53.378;10.022;2022-11-20T14:54:27;100547.00;;;3.80
58929;BMP180;44713;53.378;10.022;2022-11-20T14:59:28;100554.00;;;3.70
58929;BMP180;44713;53.378;10.022;2022-11-20T15:01:57;100545.00;;;3.70
58929;BMP180;44713;53.378;10.022;2022-11-20T15:04:22;100544.00;;;3.70
58929;BMP180;44713;53.378;10.022;2022-11-20T15:06:54;100540.00;;;3.50
58929;BMP180;44713;53.378;10.022;2022-11-20T15:09:20;100540.00;;;3.60
58929;BMP180;44713;53.378;10.022;2022-11-20T15:11:57;100535.00;;;3.50
58929;BMP180;44713;53.378;10.022;2022-11-20T15:14:24;100522.00;;;3.60
58929;BMP180;44713;53.378;10.022;2022-11-20T15:16:51;100533.00;;;3.60
58929;BMP180;44713;53.378;10.022;2022-11-20T15:19:20;100533.00;;;3.60
58929;BMP180;44713;53.378;10.022;2022-11-20T15:21:46;100526.00;;;3.50
58929;BMP180;44713;53.378;10.022;2022-11-20T15:24:11;100521.00;;;3.40
58929;BMP180;44713;53.378;10.022;2022-11-20T15:26:37;100524.00;;;3.50